Time;durP1;ratioP1;P1;durP2;ratioP2;P2;SDS_P1;SDS_P2;PMS_P1;PMS_P2;Temp;Humidity;BMP_temperature;BMP_pressure;BME280_temperature;BME280_humidity;BME280_pressure;Samples;Min_cycle;Max_cycle;Signal;HPM_P1;HPM_P2
2021/04/06 00:00:53;;;;;;;2.67;2.00;;;0.60;11.40;;;;;;5068055;28;20188;-67
2021/04/06 00:03:22;;;;;;;3.13;1.80;;;0.70;99.90;;;;;;5068526;28;20229;-68
2021/04/06 00:05:51;;;;;;;3.13;1.70;;;0.70;1.00;;;;;;5068971;28;20209;-67
2021/04/06 00:08:17;;;;;;;1.95;1.60;;;0.70;86.80;;;;;;5067074;28;20182;-67
2021/04/06 00:10:51;;;;;;;2.35;1.55;;;0.60;99.90;;;;;;5068935;28;20323;-68
2021/04/06 00:13:17;;;;;;;1.73;1.63;;;0.60;99.90;;;;;;5069661;28;20259;-67
2021/04/06 00:15:45;;;;;;;1.52;1.42;;;0.50;99.90;;;;;;5067076;28;20547;-66
2021/04/06 00:18:13;;;;;;;1.75;1.63;;;0.50;99.90;;;;;;5068229;28;20196;-66
2021/04/06 00:20:40;;;;;;;3.58;1.58;;;0.50;1.00;;;;;;5068659;28;20226;-67
2021/04/06 00:23:07;;;;;;;1.15;1.05;;;0.40;1.00;;;;;;5069385;28;20222;-67
2021/04/06 00:25:35;;;;;;;2.75;2.05;;;0.40;1.00;;;;;;5080483;28;20184;-68
2021/04/06 00:28:07;;;;;;;2.00;1.40;;;0.40;1.00;;;;;;5057188;28;20179;-67
2021/04/06 00:30:35;;;;;;;1.80;1.70;;;0.50;1.00;;;;;;5065929;28;20204;-68
2021/04/06 00:33:13;;;;;;;1.52;1.20;;;0.40;1.00;;;;;;5068827;28;20185;-67
2021/04/06 00:35:40;;;;;;;3.78;1.80;;;0.50;1.00;;;;;;5074408;28;20183;-67
2021/04/06 00:38:13;;;;;;;4.78;1.88;;;0.50;99.90;;;;;;5067202;28;20681;-68
2021/04/06 00:40:48;;;;;;;2.97;1.90;;;0.50;1.00;;;;;;5064908;28;20238;-67
2021/04/06 00:43:15;;;;;;;1.60;1.50;;;0.50;99.90;;;;;;5071346;28;20263;-68
2021/04/06 00:45:43;;;;;;;2.03;1.80;;;0.50;1.00;;;;;;5074142;28;20192;-67
2021/04/06 00:48:19;;;;;;;4.03;2.05;;;0.40;1.00;;;;;;5068218;28;20705;-67
2021/04/06 00:51:10;;;;;;;2.30;1.70;;;0.40;1.00;;;;;;5067660;28;20196;-69
2021/04/06 00:54:01;;;;;;;2.20;2.00;;;0.40;1.00;;;;;;5068510;28;20678;-68
2021/04/06 00:56:41;;;;;;;2.97;1.77;;;0.30;1.00;;;;;;5061204;28;20301;-68
2021/04/06 00:59:21;;;;;;;2.05;1.85;;;0.30;1.00;;;;;;5067394;28;20268;-68
2021/04/06 01:01:51;;;;;;;1.73;1.60;;;0.30;1.00;;;;;;5067400;28;20196;-69
2021/04/06 01:04:21;;;;;;;1.90;1.30;;;0.20;1.00;;;;;;5065759;28;20201;-68
2021/04/06 01:07:16;;;;;;;2.08;1.90;;;0.30;99.90;;;;;;5067665;28;20219;-67
2021/04/06 01:09:47;;;;;;;3.63;2.78;;;0.20;1.00;;;;;;5062735;28;20185;-66
2021/04/06 01:12:15;;;;;;;3.17;2.17;;;0.20;1.00;;;;;;5068908;28;20244;-67
2021/04/06 01:14:44;;;;;;;2.42;1.63;;;0.20;1.00;;;;;;5068678;28;20636;-68
2021/04/06 01:17:12;;;;;;;1.55;1.45;;;0.20;70.30;;;;;;5066650;28;20220;-68
2021/04/06 01:19:38;;;;;;;3.60;1.52;;;0.10;1.00;;;;;;5067654;28;20663;-66
2021/04/06 01:22:09;;;;;;;2.65;1.90;;;0.20;1.00;;;;;;5067418;28;20182;-67
2021/04/06 01:24:36;;;;;;;5.25;1.65;;;0.20;1.00;;;;;;5068315;28;20940;-68
2021/04/06 01:27:04;;;;;;;2.60;2.30;;;0.20;1.00;;;;;;5067232;28;20818;-67
2021/04/06 01:29:29;;;;;;;3.25;2.10;;;0.10;1.00;;;;;;5067384;28;20190;-68
2021/04/06 01:31:57;;;;;;;2.53;1.90;;;0.10;1.00;;;;;;5048982;28;20268;-68
2021/04/06 01:34:24;;;;;;;2.20;2.00;;;0.10;1.00;;;;;;5068074;28;20250;-67
2021/04/06 01:36:57;;;;;;;2.78;2.10;;;0.10;1.00;;;;;;5070670;28;20201;-67
2021/04/06 01:39:29;;;;;;;3.45;1.70;;;0.00;1.00;;;;;;5069230;28;20206;-67
2021/04/06 01:42:05;;;;;;;2.35;1.75;;;0.00;1.00;;;;;;5069312;28;20178;-67
2021/04/06 01:44:31;;;;;;;5.15;1.60;;;0.00;29.30;;;;;;5072089;28;21069;-68
2021/04/06 01:46:58;;;;;;;1.93;1.70;;;0.00;1.00;;;;;;5070502;28;20250;-67
2021/04/06 01:49:25;;;;;;;2.45;1.80;;;0.00;3.60;;;;;;5069431;28;20448;-68
2021/04/06 01:51:55;;;;;;;2.25;1.70;;;0.10;1.00;;;;;;5072238;28;20181;-68
2021/04/06 01:54:21;;;;;;;5.65;1.80;;;0.10;1.00;;;;;;5071783;28;20185;-67
2021/04/06 01:57:01;;;;;;;3.20;1.50;;;0.00;1.00;;;;;;5071128;28;20205;-68
2021/04/06 01:59:33;;;;;;;2.50;1.90;;;0.00;1.00;;;;;;5073491;28;20310;-69
2021/04/06 02:02:01;;;;;;;1.75;1.60;;;0.00;1.00;;;;;;5070231;28;20179;-69
2021/04/06 02:04:28;;;;;;;1.63;1.52;;;0.10;1.00;;;;;;5071760;28;20252;-68
2021/04/06 02:06:55;;;;;;;1.45;1.35;;;0.10;1.00;;;;;;5070363;28;20185;-67
2021/04/06 02:09:20;;;;;;;3.88;1.63;;;0.10;1.00;;;;;;5070159;28;20841;-68
2021/04/06 02:11:47;;;;;;;4.10;1.80;;;0.00;1.00;;;;;;5069250;28;20229;-68
2021/04/06 02:14:19;;;;;;;2.10;1.60;;;0.00;1.00;;;;;;5069378;28;20475;-68
2021/04/06 02:17:01;;;;;;;2.45;1.60;;;0.00;1.00;;;;;;5069851;28;20228;-68
2021/04/06 02:19:39;;;;;;;2.00;1.65;;;-0.10;1.00;;;;;;5068485;28;20538;-69
2021/04/06 02:22:10;;;;;;;1.88;1.45;;;0.00;1.00;;;;;;5070855;28;20760;-68
2021/04/06 02:24:41;;;;;;;2.17;2.00;;;0.00;99.90;;;;;;5070097;28;20204;-68
2021/04/06 02:27:29;;;;;;;2.92;1.70;;;0.00;1.00;;;;;;5069583;28;20194;-68
2021/04/06 02:30:00;;;;;;;1.83;1.40;;;0.00;1.00;;;;;;5068565;28;20234;-69
2021/04/06 02:32:33;;;;;;;2.50;1.55;;;0.00;1.00;;;;;;5073753;28;20561;-68
2021/04/06 02:35:03;;;;;;;1.80;1.70;;;0.00;1.00;;;;;;5091858;28;20192;-68
2021/04/06 02:37:31;;;;;;;3.85;1.77;;;0.00;1.00;;;;;;5075566;28;20258;-68
2021/04/06 02:40:18;;;;;;;2.53;1.70;;;0.00;1.00;;;;;;5073990;28;20174;-68
2021/04/06 02:42:49;;;;;;;2.95;1.60;;;0.00;1.00;;;;;;5065748;28;20662;-67
2021/04/06 02:45:23;;;;;;;1.80;1.60;;;0.00;1.00;;;;;;5069749;28;20488;-67
2021/04/06 02:47:53;;;;;;;3.70;1.98;;;-0.10;1.00;;;;;;5070080;28;20198;-67
2021/04/06 02:50:21;;;;;;;2.85;2.00;;;-0.10;1.00;;;;;;5071198;28;20181;-67
2021/04/06 02:52:47;;;;;;;3.47;1.80;;;-0.10;1.00;;;;;;5070465;28;20181;-68
2021/04/06 02:55:14;;;;;;;1.63;1.53;;;-0.20;1.00;;;;;;5069993;28;21018;-68
2021/04/06 02:57:42;;;;;;;3.63;2.28;;;-0.10;1.00;;;;;;5068139;28;20213;-68
2021/04/06 03:00:09;;;;;;;3.17;1.65;;;-0.20;13.90;;;;;;5075090;28;20182;-68
2021/04/06 03:02:41;;;;;;;1.95;1.75;;;-0.20;14.60;;;;;;5069922;28;20514;-68
2021/04/06 03:05:08;;;;;;;1.60;1.50;;;-0.20;23.50;;;;;;5066781;28;20879;-67
2021/04/06 03:07:44;;;;;;;1.75;1.65;;;-0.20;1.00;;;;;;5068646;28;20186;-68
2021/04/06 03:10:17;;;;;;;1.92;1.67;;;-0.30;14.10;;;;;;5069996;28;20185;-68
2021/04/06 03:12:43;;;;;;;4.25;1.80;;;-0.30;99.90;;;;;;5068581;28;20209;-69
2021/04/06 03:15:09;;;;;;;3.37;1.70;;;-0.40;99.90;;;;;;5071263;28;20190;-67
2021/04/06 03:17:49;;;;;;;2.58;2.15;;;-0.30;22.00;;;;;;5077670;28;20261;-67
2021/04/06 03:20:18;;;;;;;5.47;2.00;;;-0.30;12.30;;;;;;5074957;28;20177;-68
2021/04/06 03:22:43;;;;;;;2.45;1.60;;;-0.30;1.00;;;;;;5071884;28;20666;-68
2021/04/06 03:25:12;;;;;;;4.43;1.83;;;-0.40;93.10;;;;;;5071313;28;20963;-68
2021/04/06 03:27:42;;;;;;;2.83;1.80;;;-0.50;99.90;;;;;;5069068;28;20411;-67
2021/04/06 03:30:08;;;;;;;4.50;1.70;;;-0.40;21.70;;;;;;5073668;28;20223;-68
2021/04/06 03:32:34;;;;;;;2.25;1.90;;;-0.40;92.00;;;;;;5069663;28;20190;-68
2021/04/06 03:35:00;;;;;;;1.90;1.43;;;-0.50;99.90;;;;;;5069489;28;20231;-68
2021/04/06 03:37:28;;;;;;;2.23;1.60;;;-0.40;99.90;;;;;;5068317;28;20216;-68
2021/04/06 03:39:54;;;;;;;3.15;1.98;;;-0.50;99.90;;;;;;5069869;28;20261;-68
2021/04/06 03:42:27;;;;;;;5.23;1.97;;;-0.60;99.90;;;;;;5070469;28;20180;-67
2021/04/06 03:45:10;;;;;;;2.28;2.08;;;-0.60;1.00;;;;;;5068125;28;20193;-68
2021/04/06 03:48:18;;;;;;;2.03;1.90;;;-0.50;99.90;;;;;;5070668;28;20647;-68
2021/04/06 03:50:44;;;;;;;3.30;1.95;;;-0.50;99.90;;;;;;4962456;28;20197;-67
2021/04/06 03:53:11;;;;;;;4.43;2.10;;;-0.50;99.90;;;;;;5058297;28;20774;-68
2021/04/06 03:55:38;;;;;;;2.00;1.60;;;-0.50;1.00;;;;;;5069936;28;20192;-68
2021/04/06 03:58:17;;;;;;;6.70;2.00;;;-0.40;99.90;;;;;;5049751;28;20230;-68
2021/04/06 04:00:42;;;;;;;3.90;2.17;;;-0.40;99.90;;;;;;5069410;28;20192;-68
2021/04/06 04:03:08;;;;;;;3.30;2.13;;;-0.40;99.90;;;;;;5070867;28;20181;-68
2021/04/06 04:05:34;;;;;;;1.80;1.70;;;-0.30;1.00;;;;;;5052150;28;20526;-68
2021/04/06 04:08:00;;;;;;;2.50;2.10;;;-0.20;1.00;;;;;;5071038;28;20423;-68
2021/04/06 04:10:27;;;;;;;4.18;2.20;;;-0.20;1.00;;;;;;5069742;28;20523;-67
2021/04/06 04:12:53;;;;;;;3.85;1.98;;;-0.20;99.90;;;;;;5069516;28;20206;-67
2021/04/06 04:15:19;;;;;;;3.80;2.20;;;0.00;1.00;;;;;;5069131;28;20185;-68
2021/04/06 04:17:52;;;;;;;2.50;1.80;;;0.00;99.90;;;;;;5067320;28;20903;-68
2021/04/06 04:20:20;;;;;;;3.63;2.15;;;0.00;99.90;;;;;;5067839;28;20562;-69
2021/04/06 04:22:46;;;;;;;3.15;2.85;;;-0.10;1.00;;;;;;5063189;28;20726;-69
2021/04/06 04:25:13;;;;;;;5.60;2.70;;;-0.10;1.00;;;;;;5058550;28;20301;-69
2021/04/06 04:27:40;;;;;;;2.95;2.13;;;-0.10;11.90;;;;;;5058096;28;20819;-69
2021/04/06 04:30:06;;;;;;;7.95;3.28;;;-0.10;99.90;;;;;;5060822;28;20580;-69
2021/04/06 04:32:32;;;;;;;3.20;2.45;;;0.00;30.40;;;;;;5059078;28;20185;-69
2021/04/06 04:34:58;;;;;;;2.70;2.40;;;0.10;99.90;;;;;;5059380;28;20182;-69
2021/04/06 04:37:23;;;;;;;7.30;2.67;;;0.20;99.90;;;;;;5058502;28;20482;-67
2021/04/06 04:39:49;;;;;;;3.93;2.50;;;0.20;1.00;;;;;;5059241;28;20182;-67
2021/04/06 04:42:14;;;;;;;3.30;3.00;;;0.30;99.90;;;;;;5065122;28;20185;-68
2021/04/06 04:44:40;;;;;;;5.30;3.00;;;0.40;1.00;;;;;;5069624;28;20184;-68
2021/04/06 04:47:06;;;;;;;4.60;3.40;;;0.40;1.00;;;;;;5069096;28;20203;-67
2021/04/06 04:49:31;;;;;;;4.57;2.67;;;0.50;1.00;;;;;;5068047;28;20260;-67
2021/04/06 04:51:57;;;;;;;4.17;3.13;;;0.50;1.00;;;;;;5067822;28;20193;-67
2021/04/06 04:54:23;;;;;;;5.70;3.07;;;0.40;1.00;;;;;;5067248;28;20199;-68
2021/04/06 04:56:49;;;;;;;3.85;2.90;;;0.30;1.00;;;;;;5068265;28;20549;-68
2021/04/06 04:59:14;;;;;;;4.80;2.87;;;0.20;1.00;;;;;;5069092;28;20289;-68
2021/04/06 05:01:40;;;;;;;4.83;3.40;;;0.20;4.30;;;;;;5067855;28;20186;-69
2021/04/06 05:04:06;;;;;;;4.60;3.00;;;0.20;28.90;;;;;;5068915;28;20191;-68
2021/04/06 05:06:31;;;;;;;4.90;3.40;;;0.30;43.60;;;;;;5067611;28;20199;-68
2021/04/06 05:08:57;;;;;;;8.60;4.43;;;0.20;56.50;;;;;;5069008;28;20182;-68
2021/04/06 05:11:23;;;;;;;4.80;3.00;;;0.30;71.00;;;;;;5070525;28;20306;-68
2021/04/06 05:13:50;;;;;;;9.33;4.00;;;0.30;67.80;;;;;;5072782;28;20549;-68
2021/04/06 05:16:15;;;;;;;4.80;3.38;;;0.30;69.20;;;;;;5071756;28;20199;-69
2021/04/06 05:18:41;;;;;;;5.93;4.30;;;0.30;71.30;;;;;;5082487;28;20767;-68
2021/04/06 05:21:06;;;;;;;6.77;3.47;;;0.30;80.50;;;;;;5072928;28;20671;-70
2021/04/06 05:23:32;;;;;;;5.03;3.60;;;0.40;87.00;;;;;;5072621;28;20185;-69
2021/04/06 05:25:58;;;;;;;5.13;4.10;;;0.40;86.30;;;;;;5071805;28;20584;-69
2021/04/06 05:28:23;;;;;;;6.30;4.20;;;0.40;86.80;;;;;;5072452;28;20235;-69
2021/04/06 05:30:49;;;;;;;5.90;3.83;;;0.40;83.30;;;;;;5072693;28;20164;-69
2021/04/06 05:33:15;;;;;;;5.27;4.00;;;0.50;75.10;;;;;;5071749;28;20770;-70
2021/04/06 05:35:40;;;;;;;4.55;3.58;;;0.50;70.10;;;;;;5072571;28;20221;-69
2021/04/06 05:38:06;;;;;;;6.67;4.23;;;0.60;69.50;;;;;;5074154;28;20241;-68
2021/04/06 05:40:32;;;;;;;6.53;3.93;;;0.70;65.70;;;;;;5076622;28;20194;-68
2021/04/06 05:42:58;;;;;;;4.97;3.77;;;0.70;56.50;;;;;;5072213;28;20615;-69
2021/04/06 05:45:25;;;;;;;6.28;4.25;;;0.90;43.20;;;;;;5071645;28;20273;-69
2021/04/06 05:47:52;;;;;;;4.63;3.30;;;0.90;25.00;;;;;;5072017;28;20345;-69
2021/04/06 05:50:18;;;;;;;5.22;3.50;;;1.00;19.90;;;;;;5072230;28;20247;-69
2021/04/06 05:52:44;;;;;;;6.80;3.13;;;1.00;1.00;;;;;;5071192;28;20207;-69
2021/04/06 05:55:10;;;;;;;5.97;3.73;;;1.10;1.00;;;;;;5071817;28;20520;-69
2021/04/06 05:57:36;;;;;;;7.70;3.70;;;1.10;1.00;;;;;;5071169;28;20474;-69
2021/04/06 06:00:04;;;;;;;3.53;3.23;;;1.20;1.00;;;;;;5071905;28;20683;-68
2021/04/06 06:02:30;;;;;;;4.18;3.30;;;1.20;1.00;;;;;;5071186;28;20434;-69
2021/04/06 06:04:57;;;;;;;3.77;3.00;;;1.20;1.00;;;;;;5069000;28;20194;-69
2021/04/06 06:07:23;;;;;;;5.15;3.88;;;1.20;1.00;;;;;;5070945;28;20235;-68
2021/04/06 06:09:48;;;;;;;3.73;3.40;;;1.20;1.00;;;;;;5068437;28;20196;-68
2021/04/06 06:12:17;;;;;;;4.37;3.10;;;1.20;1.00;;;;;;5074639;28;20474;-68
2021/04/06 06:14:51;;;;;;;5.25;3.90;;;1.20;1.00;;;;;;5071634;28;20192;-68
2021/04/06 06:17:22;;;;;;;3.90;3.33;;;1.20;1.00;;;;;;5075237;28;20293;-69
2021/04/06 06:19:54;;;;;;;7.43;4.03;;;1.20;1.00;;;;;;5070836;28;20223;-70
2021/04/06 06:22:21;;;;;;;7.20;3.65;;;1.20;1.00;;;;;;5071574;28;20185;-70
2021/04/06 06:24:51;;;;;;;5.72;4.43;;;1.30;1.00;;;;;;5070905;28;20195;-70
2021/04/06 06:27:24;;;;;;;6.05;4.13;;;1.40;6.90;;;;;;5071670;28;20184;-69
2021/04/06 06:29:50;;;;;;;6.38;3.67;;;1.50;7.00;;;;;;5070555;28;20694;-70
2021/04/06 06:32:21;;;;;;;4.32;3.30;;;1.70;1.00;;;;;;5045696;28;20639;-69
2021/04/06 06:34:49;;;;;;;7.45;3.60;;;1.70;1.00;;;;;;5077668;28;20279;-74
2021/04/06 06:37:25;;;;;;;5.28;3.72;;;1.90;1.00;;;;;;5082469;28;20212;-73
2021/04/06 06:39:54;;;;;;;5.57;4.07;;;2.00;1.00;;;;;;5073830;28;20173;-73
2021/04/06 06:42:22;;;;;;;4.25;3.17;;;2.10;1.00;;;;;;5079554;28;20190;-73
2021/04/06 06:44:49;;;;;;;4.97;3.90;;;2.30;1.00;;;;;;5058040;28;20177;-72
2021/04/06 06:47:22;;;;;;;3.45;3.15;;;2.30;1.00;;;;;;5070947;28;20185;-73
2021/04/06 06:49:47;;;;;;;6.47;3.90;;;2.30;1.00;;;;;;5076470;28;20238;-73
2021/04/06 06:52:22;;;;;;;6.43;5.77;;;2.20;1.00;;;;;;5062513;28;20195;-73
2021/04/06 06:54:58;;;;;;;5.13;3.60;;;2.20;1.00;;;;;;5070517;28;20582;-73
2021/04/06 06:57:29;;;;;;;5.63;3.85;;;2.20;1.00;;;;;;5070201;28;20207;-73
2021/04/06 07:00:08;;;;;;;5.63;3.67;;;2.30;1.00;;;;;;5069214;28;20184;-73
2021/04/06 07:02:34;;;;;;;13.88;8.45;;;2.20;1.00;;;;;;5070934;28;20264;-73
2021/04/06 07:05:15;;;;;;;6.72;4.30;;;2.20;1.00;;;;;;5064200;28;20271;-68
2021/04/06 07:07:56;;;;;;;6.97;4.25;;;2.30;1.00;;;;;;5079567;28;20184;-68
2021/04/06 07:10:24;;;;;;;4.80;3.80;;;2.50;1.00;;;;;;5070156;28;20192;-68
2021/04/06 07:13:02;;;;;;;6.38;4.32;;;2.70;1.00;;;;;;5070528;28;20177;-68
2021/04/06 07:15:29;;;;;;;6.38;3.70;;;2.80;1.00;;;;;;5066831;28;20172;-68
2021/04/06 07:18:04;;;;;;;4.72;3.63;;;2.80;99.90;;;;;;5073664;28;20639;-68
2021/04/06 07:20:32;;;;;;;5.80;3.75;;;2.90;99.90;;;;;;5063654;28;20914;-68
2021/04/06 07:23:02;;;;;;;4.53;3.72;;;2.90;99.90;;;;;;5070052;28;20949;-68
2021/04/06 07:25:29;;;;;;;5.78;3.97;;;2.80;99.90;;;;;;5068878;28;20180;-68
2021/04/06 07:27:55;;;;;;;5.85;4.32;;;2.70;1.00;;;;;;5069798;28;20187;-69
2021/04/06 07:30:22;;;;;;;4.72;4.20;;;2.60;1.00;;;;;;5059266;28;20181;-62
2021/04/06 07:32:49;;;;;;;6.90;5.50;;;2.50;1.00;;;;;;5069213;28;20531;-63
2021/04/06 07:35:15;;;;;;;8.05;5.35;;;2.50;1.00;;;;;;5069583;28;20520;-68
2021/04/06 07:37:43;;;;;;;8.13;5.30;;;2.50;1.00;;;;;;5069049;28;20709;-69
2021/04/06 07:40:11;;;;;;;6.72;5.30;;;2.50;1.00;;;;;;5066090;28;20184;-68
2021/04/06 07:42:39;;;;;;;6.50;5.05;;;2.50;1.00;;;;;;5064276;28;20260;-64
2021/04/06 07:45:09;;;;;;;8.48;4.65;;;2.50;1.00;;;;;;5068236;28;20822;-68
2021/04/06 07:47:37;;;;;;;6.55;5.05;;;2.40;1.00;;;;;;5068482;28;20184;-64
2021/04/06 07:50:10;;;;;;;8.38;5.55;;;2.40;1.00;;;;;;5070636;28;20196;-63
2021/04/06 07:52:36;;;;;;;8.00;5.10;;;2.40;1.00;;;;;;5068389;28;20234;-69
2021/04/06 07:55:01;;;;;;;6.03;4.73;;;2.40;1.00;;;;;;5068573;28;20193;-63
2021/04/06 07:57:56;;;;;;;6.70;4.87;;;2.40;1.00;;;;;;5068575;28;20209;-68
2021/04/06 08:00:48;;;;;;;8.27;5.30;;;2.50;1.00;;;;;;5049812;28;20255;-67
2021/04/06 08:03:33;;;;;;;6.65;4.63;;;2.50;1.00;;;;;;5061759;28;20245;-63
2021/04/06 08:06:18;;;;;;;6.13;5.05;;;2.60;1.00;;;;;;5071067;28;20184;-63
2021/04/06 08:08:44;;;;;;;5.80;5.15;;;2.70;1.00;;;;;;5068198;28;20185;-62
2021/04/06 08:11:09;;;;;;;5.00;4.53;;;2.90;1.00;;;;;;5067827;28;20703;-62
2021/04/06 08:13:35;;;;;;;8.70;5.40;;;3.10;1.00;;;;;;5067957;28;20185;-62
2021/04/06 08:16:30;;;;;;;7.30;5.33;;;3.20;99.90;;;;;;5068084;28;20192;-62
2021/04/06 08:19:03;;;;;;;7.10;5.70;;;3.20;1.00;;;;;;5048214;28;20217;-63
2021/04/06 08:21:29;;;;;;;5.85;5.25;;;3.30;1.00;;;;;;5058715;28;20252;-63
2021/04/06 08:23:55;;;;;;;6.00;5.37;;;3.40;78.10;;;;;;5068287;28;20177;-68
2021/04/06 08:26:34;;;;;;;6.90;6.13;;;3.40;1.00;;;;;;5067472;28;20671;-68
2021/04/06 08:29:22;;;;;;;6.90;6.15;;;3.50;1.00;;;;;;5067951;28;20427;-64
2021/04/06 08:32:07;;;;;;;9.00;6.47;;;3.50;1.00;;;;;;5067727;28;20523;-68
2021/04/06 08:34:33;;;;;;;6.95;6.25;;;3.60;90.20;;;;;;5067655;28;20199;-63
2021/04/06 08:37:13;;;;;;;8.00;6.73;;;3.60;1.00;;;;;;5068031;28;20205;-63
2021/04/06 08:39:39;;;;;;;7.55;6.75;;;3.50;1.00;;;;;;5065235;28;20180;-68
2021/04/06 08:42:07;;;;;;;10.82;6.63;;;3.30;1.00;;;;;;5068098;28;20183;-68
2021/04/06 08:44:35;;;;;;;10.80;8.60;;;3.30;1.00;;;;;;5067206;28;20260;-68
2021/04/06 08:47:01;;;;;;;8.50;7.22;;;3.40;99.90;;;;;;5067031;28;20211;-69
2021/04/06 08:49:27;;;;;;;8.40;7.20;;;3.50;1.00;;;;;;5070505;28;20224;-69
2021/04/06 08:51:54;;;;;;;9.55;6.82;;;3.50;1.00;;;;;;5067838;28;20937;-70
2021/04/06 08:54:25;;;;;;;8.63;7.15;;;3.60;1.00;;;;;;5068341;28;20200;-70
2021/04/06 08:56:56;;;;;;;8.75;7.13;;;3.90;1.00;;;;;;5067298;28;20312;-62
2021/04/06 08:59:32;;;;;;;10.40;7.45;;;4.00;99.90;;;;;;5067449;28;20706;-64
2021/04/06 09:02:02;;;;;;;9.27;7.10;;;4.00;1.00;;;;;;5067552;28;20169;-63
2021/04/06 09:04:32;;;;;;;9.32;7.57;;;4.10;1.00;;;;;;5066923;28;20331;-63
2021/04/06 09:06:58;;;;;;;7.97;7.20;;;4.30;1.00;;;;;;5053100;28;20281;-67
2021/04/06 09:09:25;;;;;;;9.10;7.60;;;4.50;99.90;;;;;;5072554;28;20259;-68
2021/04/06 09:11:52;;;;;;;9.48;7.93;;;4.80;1.00;;;;;;5066249;28;20224;-68
2021/04/06 09:14:19;;;;;;;7.93;7.15;;;5.30;1.00;;;;;;5067859;28;20195;-68
2021/04/06 09:16:45;;;;;;;8.70;7.78;;;6.00;99.90;;;;;;5067633;28;20209;-68
2021/04/06 09:19:16;;;;;;;8.07;7.37;;;6.70;99.90;;;;;;5044935;28;20194;-68
2021/04/06 09:21:58;;;;;;;8.10;7.20;;;6.90;50.90;;;;;;5067139;28;20194;-62
2021/04/06 09:24:25;;;;;;;7.90;7.10;;;6.70;1.00;;;;;;5067967;28;20603;-63
2021/04/06 09:26:53;;;;;;;7.65;6.85;;;6.70;1.00;;;;;;5068278;28;20162;-62
2021/04/06 09:29:20;;;;;;;8.77;7.65;;;6.80;1.00;;;;;;5049973;28;20217;-62
2021/04/06 09:31:48;;;;;;;7.93;6.90;;;7.00;1.00;;;;;;5068018;28;20279;-63
2021/04/06 09:34:26;;;;;;;6.97;6.27;;;7.50;1.00;;;;;;5067674;28;20512;-63
2021/04/06 09:37:07;;;;;;;7.30;6.47;;;8.00;1.00;;;;;;5078559;28;20554;-62
2021/04/06 09:39:35;;;;;;;7.03;6.40;;;8.30;1.00;;;;;;5066699;28;21059;-63
2021/04/06 09:42:02;;;;;;;7.40;6.70;;;8.50;1.00;;;;;;5069135;28;20444;-64
2021/04/06 09:44:31;;;;;;;11.10;5.83;;;8.70;1.00;;;;;;5069562;28;20415;-64
2021/04/06 09:47:02;;;;;;;5.83;5.30;;;8.30;1.00;;;;;;5069474;28;20442;-63
2021/04/06 09:49:43;;;;;;;7.60;6.90;;;7.90;1.00;;;;;;5067442;28;20428;-63
2021/04/06 09:52:13;;;;;;;7.40;6.00;;;7.20;1.00;;;;;;5077986;28;20454;-64
2021/04/06 09:54:43;;;;;;;6.47;5.82;;;6.70;1.00;;;;;;5078260;28;20193;-63
2021/04/06 09:57:10;;;;;;;6.10;5.50;;;6.40;1.00;;;;;;5069504;28;20212;-63
2021/04/06 09:59:44;;;;;;;6.00;4.88;;;5.60;1.00;;;;;;5071279;28;20524;-63
2021/04/06 10:02:21;;;;;;;6.13;5.13;;;5.10;1.00;;;;;;5078996;28;20184;-62
2021/04/06 10:04:47;;;;;;;5.22;4.70;;;5.50;1.00;;;;;;5072671;28;20220;-63
2021/04/06 10:07:28;;;;;;;5.70;4.93;;;6.40;1.00;;;;;;5070541;28;20190;-62
2021/04/06 10:09:58;;;;;;;6.00;4.87;;;7.50;1.00;;;;;;5065657;28;20521;-62
2021/04/06 10:12:25;;;;;;;5.97;5.47;;;8.70;1.00;;;;;;5070305;28;20477;-63
2021/04/06 10:14:52;;;;;;;5.50;5.00;;;9.40;99.90;;;;;;5072078;28;20468;-63
2021/04/06 10:17:21;;;;;;;6.03;5.43;;;9.60;99.90;;;;;;5076670;28;20467;-64
2021/04/06 10:19:59;;;;;;;5.30;4.80;;;9.90;99.90;;;;;;5079835;28;20447;-63
2021/04/06 10:22:26;;;;;;;8.70;5.57;;;10.30;99.90;;;;;;5071730;28;20422;-63
2021/04/06 10:25:01;;;;;;;5.97;5.37;;;10.70;99.90;;;;;;5078798;28;20430;-64
2021/04/06 10:27:28;;;;;;;5.87;5.37;;;11.00;99.90;;;;;;5054495;28;20431;-63
2021/04/06 10:30:00;;;;;;;5.13;4.63;;;11.10;99.90;;;;;;5071182;28;20933;-62
2021/04/06 10:32:31;;;;;;;4.80;4.40;;;10.40;99.90;;;;;;5072069;28;21246;-64
2021/04/06 10:35:10;;;;;;;6.50;4.20;;;9.00;99.90;;;;;;5072016;28;20423;-64
2021/04/06 10:37:42;;;;;;;5.60;4.27;;;7.60;99.90;;;;;;5084175;28;20456;-64
2021/04/06 10:40:25;;;;;;;6.72;4.80;;;6.80;99.90;;;;;;5080880;28;21248;-64
2021/04/06 10:42:54;;;;;;;5.18;4.68;;;6.10;99.90;;;;;;5072141;28;20231;-63
2021/04/06 10:45:22;;;;;;;5.03;4.53;;;5.70;99.90;;;;;;5073298;28;20180;-63
2021/04/06 10:48:04;;;;;;;4.38;3.47;;;5.80;99.90;;;;;;5072021;28;20228;-64
2021/04/06 10:50:31;;;;;;;4.32;3.92;;;6.10;99.90;;;;;;5070378;28;20179;-64
2021/04/06 10:52:57;;;;;;;4.60;4.00;;;6.90;1.00;;;;;;5072051;28;20199;-63
2021/04/06 10:55:37;;;;;;;4.40;4.10;;;7.60;99.90;;;;;;5071917;28;20999;-63
2021/04/06 10:58:05;;;;;;;4.67;4.27;;;8.10;99.90;;;;;;5071116;28;20472;-64
2021/04/06 11:00:31;;;;;;;5.40;4.90;;;8.30;99.90;;;;;;5070481;28;20436;-64
2021/04/06 11:03:13;;;;;;;5.13;4.73;;;8.70;99.90;;;;;;5071187;28;21104;-64
2021/04/06 11:05:40;;;;;;;6.13;5.60;;;8.90;99.90;;;;;;5081593;28;20434;-64
2021/04/06 11:08:20;;;;;;;6.30;5.80;;;9.40;99.90;;;;;;5071156;28;20534;-63
2021/04/06 11:10:46;;;;;;;6.07;5.57;;;10.10;99.90;;;;;;5078955;28;20462;-65
2021/04/06 11:13:12;;;;;;;6.40;5.90;;;10.40;99.90;;;;;;5077646;28;20426;-63
2021/04/06 11:15:37;;;;;;;6.00;5.50;;;10.50;99.90;;;;;;5069573;28;20427;-64
2021/04/06 11:18:03;;;;;;;6.07;5.60;;;10.90;99.90;;;;;;5069491;28;20466;-63
2021/04/06 11:20:29;;;;;;;11.27;10.23;;;10.50;99.90;;;;;;5073457;28;20210;-63
2021/04/06 11:22:54;;;;;;;17.63;14.80;;;10.80;99.90;;;;;;5074150;28;20185;-64
2021/04/06 11:25:20;;;;;;;5.47;4.97;;;11.50;99.90;;;;;;5069937;28;20181;-64
2021/04/06 11:27:46;;;;;;;5.40;5.00;;;11.80;99.90;;;;;;5069287;28;20193;-64
2021/04/06 11:30:12;;;;;;;5.97;5.57;;;11.50;99.90;;;;;;5068616;28;20185;-64
2021/04/06 11:32:37;;;;;;;5.73;5.23;;;10.70;99.90;;;;;;5069014;28;20188;-63
2021/04/06 11:35:04;;;;;;;5.23;4.73;;;9.90;99.90;;;;;;5070155;28;20438;-64
2021/04/06 11:37:29;;;;;;;5.50;5.03;;;8.90;99.90;;;;;;5080205;28;20212;-64
2021/04/06 11:39:55;;;;;;;5.40;4.90;;;8.00;99.90;;;;;;5069033;28;20430;-64
2021/04/06 11:42:22;;;;;;;5.53;5.13;;;7.50;99.90;;;;;;5068599;28;20546;-64
2021/04/06 11:44:48;;;;;;;6.30;5.70;;;7.00;99.90;;;;;;5069117;28;20186;-64
2021/04/06 11:47:13;;;;;;;6.00;5.40;;;6.50;99.90;;;;;;5068698;28;20292;-63
2021/04/06 11:49:39;;;;;;;7.40;6.70;;;6.30;99.90;;;;;;5069338;28;20189;-63
2021/04/06 11:52:05;;;;;;;8.30;5.90;;;5.90;1.00;;;;;;5068924;28;20213;-63
2021/04/06 11:54:31;;;;;;;5.77;5.27;;;5.80;1.00;;;;;;5077106;28;20538;-64
2021/04/06 11:56:56;;;;;;;10.97;9.97;;;5.80;1.00;;;;;;5068792;28;20455;-64
2021/04/06 11:59:22;;;;;;;15.43;13.97;;;5.70;1.00;;;;;;5067675;28;20436;-64
2021/04/06 12:01:48;;;;;;;11.50;8.20;;;5.50;99.90;;;;;;5068534;28;20203;-64
2021/04/06 12:04:14;;;;;;;30.30;23.17;;;5.40;99.90;;;;;;5067086;28;20185;-63
2021/04/06 12:06:41;;;;;;;8.68;7.72;;;5.60;1.00;;;;;;5067245;28;20177;-63
2021/04/06 12:09:08;;;;;;;5.75;4.22;;;5.90;1.00;;;;;;5066984;28;20183;-64
2021/04/06 12:11:35;;;;;;;4.70;4.40;;;6.10;1.00;;;;;;5067276;28;20226;-63
2021/04/06 12:14:01;;;;;;;4.50;4.10;;;6.00;1.00;;;;;;5049805;28;20711;-63
2021/04/06 12:16:26;;;;;;;5.40;4.47;;;6.00;1.00;;;;;;5059737;28;20198;-64
2021/04/06 12:18:52;;;;;;;3.80;3.50;;;6.60;1.00;;;;;;5047526;28;20433;-64
2021/04/06 12:21:17;;;;;;;4.20;3.37;;;7.50;1.00;;;;;;5048521;28;20294;-64
2021/04/06 12:23:43;;;;;;;3.57;3.27;;;8.20;1.00;;;;;;5051533;28;20185;-64
2021/04/06 12:26:09;;;;;;;3.40;3.10;;;9.10;99.90;;;;;;5049775;28;20182;-64
2021/04/06 12:28:35;;;;;;;4.30;4.00;;;9.60;99.90;;;;;;5049413;28;20238;-64
2021/04/06 12:31:01;;;;;;;4.20;3.80;;;9.40;99.90;;;;;;5064763;28;20459;-64
2021/04/06 12:33:27;;;;;;;5.83;3.93;;;8.80;99.90;;;;;;5067790;28;20186;-64
2021/04/06 12:35:53;;;;;;;3.97;3.17;;;8.60;99.90;;;;;;5067855;28;20464;-64
2021/04/06 12:38:18;;;;;;;5.47;3.63;;;8.10;99.90;;;;;;5067938;28;20461;-64
2021/04/06 12:40:44;;;;;;;9.50;8.47;;;7.60;99.90;;;;;;5068055;28;20215;-63
2021/04/06 12:43:09;;;;;;;3.90;3.70;;;7.60;99.90;;;;;;5068513;28;20180;-63
2021/04/06 12:45:35;;;;;;;4.30;3.90;;;8.00;99.90;;;;;;5067821;28;20208;-64
2021/04/06 12:48:01;;;;;;;4.50;3.73;;;8.10;99.90;;;;;;5068698;28;20177;-63
2021/04/06 12:50:27;;;;;;;5.47;4.10;;;8.10;99.90;;;;;;5066873;28;20476;-63
2021/04/06 12:52:53;;;;;;;3.80;3.40;;;7.70;99.90;;;;;;5048818;28;20435;-69
2021/04/06 12:55:19;;;;;;;3.97;3.67;;;7.70;99.90;;;;;;5084360;28;20206;-69
2021/04/06 12:57:47;;;;;;;5.63;3.43;;;8.40;99.90;;;;;;5068079;28;20451;-69
2021/04/06 13:00:13;;;;;;;4.10;3.80;;;8.90;99.90;;;;;;5068170;28;21183;-68
2021/04/06 13:02:38;;;;;;;4.97;3.90;;;9.00;99.90;;;;;;5068110;28;20504;-69
2021/04/06 13:05:05;;;;;;;4.07;3.60;;;9.00;99.90;;;;;;5068034;28;20779;-69
2021/04/06 13:07:31;;;;;;;4.53;3.87;;;8.80;99.90;;;;;;5074044;28;20185;-69
2021/04/06 13:09:56;;;;;;;4.30;3.60;;;8.60;99.90;;;;;;5070298;28;20465;-62
2021/04/06 13:12:22;;;;;;;5.43;4.37;;;9.00;99.90;;;;;;5078182;28;20552;-68